sensor_id;sensor_type;location;lat;lon;timestamp;P1;durP1;ratioP1;P2;durP2;ratioP2
42144;SDS011;27813;43.516;11.890;2023-06-10T04:33:10;10.63;;;5.30;;
42144;SDS011;27813;43.516;11.890;2023-06-10T04:37:16;11.48;;;5.60;;
42144;SDS011;27813;43.516;11.890;2023-06-10T04:41:22;8.50;;;5.70;;
42144;SDS011;27813;43.516;11.890;2023-06-10T04:45:28;9.00;;;5.35;;
42144;SDS011;27813;43.516;11.890;2023-06-10T04:49:34;8.82;;;5.32;;
42144;SDS011;27813;43.516;11.890;2023-06-10T04:53:39;7.03;;;5.15;;
42144;SDS011;27813;43.516;11.890;2023-06-10T04:57:43;6.28;;;5.13;;
42144;SDS011;27813;43.516;11.890;2023-06-10T05:01:54;7.40;;;5.38;;
42144;SDS011;27813;43.516;11.890;2023-06-10T05:05:58;5.72;;;4.78;;
42144;SDS011;27813;43.516;11.890;2023-06-10T05:10:02;6.80;;;4.93;;
42144;SDS011;27813;43.516;11.890;2023-06-10T05:14:07;6.72;;;4.50;;
42144;SDS011;27813;43.516;11.890;2023-06-10T05:18:11;6.53;;;4.80;;
42144;SDS011;27813;43.516;11.890;2023-06-10T05:22:16;8.13;;;5.50;;
42144;SDS011;27813;43.516;11.890;2023-06-10T05:26:21;8.07;;;5.30;;
42144;SDS011;27813;43.516;11.890;2023-06-10T05:30:25;6.82;;;4.80;;
42144;SDS011;27813;43.516;11.890;2023-06-10T05:34:30;6.13;;;4.82;;
42144;SDS011;27813;43.516;11.890;2023-06-10T05:38:35;6.70;;;5.30;;
42144;SDS011;27813;43.516;11.890;2023-06-10T05:42:39;9.68;;;5.07;;
42144;SDS011;27813;43.516;11.890;2023-06-10T05:46:43;7.90;;;6.57;;
42144;SDS011;27813;43.516;11.890;2023-06-10T05:50:48;10.73;;;6.20;;
42144;SDS011;27813;43.516;11.890;2023-06-10T05:54:52;11.00;;;6.20;;
42144;SDS011;27813;43.516;11.890;2023-06-10T05:58:57;12.35;;;6.25;;
42144;SDS011;27813;43.516;11.890;2023-06-10T06:03:01;11.00;;;6.10;;
42144;SDS011;27813;43.516;11.890;2023-06-10T06:07:06;8.95;;;6.18;;
42144;SDS011;27813;43.516;11.890;2023-06-10T06:11:10;9.32;;;6.20;;
42144;SDS011;27813;43.516;11.890;2023-06-10T06:15:15;11.23;;;5.85;;
42144;SDS011;27813;43.516;11.890;2023-06-10T06:19:19;7.72;;;6.22;;
42144;SDS011;27813;43.516;11.890;2023-06-10T06:23:23;6.63;;;5.40;;
42144;SDS011;27813;43.516;11.890;2023-06-10T06:27:27;8.68;;;5.57;;
42144;SDS011;27813;43.516;11.890;2023-06-10T06:31:32;8.57;;;5.50;;
42144;SDS011;27813;43.516;11.890;2023-06-10T06:35:37;10.07;;;5.30;;
42144;SDS011;27813;43.516;11.890;2023-06-10T06:39:45;9.30;;;5.70;;
42144;SDS011;27813;43.516;11.890;2023-06-10T06:43:49;8.98;;;6.00;;
42144;SDS011;27813;43.516;11.890;2023-06-10T06:52:52;9.70;;;6.15;;
42144;SDS011;27813;43.516;11.890;2023-06-10T06:56:56;8.20;;;5.70;;
42144;SDS011;27813;43.516;11.890;2023-06-10T07:01:00;9.82;;;5.38;;
42144;SDS011;27813;43.516;11.890;2023-06-10T07:05:04;8.70;;;6.00;;
42144;SDS011;27813;43.516;11.890;2023-06-10T07:09:10;10.02;;;5.30;;
42144;SDS011;27813;43.516;11.890;2023-06-10T07:13:15;8.80;;;5.43;;
42144;SDS011;27813;43.516;11.890;2023-06-10T07:17:19;10.25;;;5.35;;
42144;SDS011;27813;43.516;11.890;2023-06-10T07:21:23;8.52;;;4.75;;
42144;SDS011;27813;43.516;11.890;2023-06-10T07:25:27;9.05;;;5.47;;
42144;SDS011;27813;43.516;11.890;2023-06-10T07:29:31;12.45;;;6.10;;
42144;SDS011;27813;43.516;11.890;2023-06-10T07:33:36;11.15;;;5.45;;
42144;SDS011;27813;43.516;11.890;2023-06-10T07:37:41;7.18;;;4.20;;
42144;SDS011;27813;43.516;11.890;2023-06-10T07:41:45;7.13;;;5.03;;
42144;SDS011;27813;43.516;11.890;2023-06-10T07:45:50;8.93;;;4.88;;
42144;SDS011;27813;43.516;11.890;2023-06-10T07:49:54;7.20;;;4.22;;
42144;SDS011;27813;43.516;11.890;2023-06-10T07:53:58;4.60;;;3.67;;
42144;SDS011;27813;43.516;11.890;2023-06-10T07:58:02;5.95;;;3.58;;
42144;SDS011;27813;43.516;11.890;2023-06-10T08:02:06;5.80;;;3.50;;
42144;SDS011;27813;43.516;11.890;2023-06-10T08:06:11;6.88;;;3.22;;
42144;SDS011;27813;43.516;11.890;2023-06-10T08:10:15;6.68;;;3.60;;
42144;SDS011;27813;43.516;11.890;2023-06-10T08:14:19;5.70;;;3.25;;
42144;SDS011;27813;43.516;11.890;2023-06-10T08:18:23;9.50;;;3.53;;
42144;SDS011;27813;43.516;11.890;2023-06-10T08:22:28;5.20;;;2.65;;
42144;SDS011;27813;43.516;11.890;2023-06-10T08:26:32;3.10;;;2.35;;
42144;SDS011;27813;43.516;11.890;2023-06-10T08:30:36;5.65;;;3.08;;
42144;SDS011;27813;43.516;11.890;2023-06-10T08:34:41;4.57;;;2.35;;
42144;SDS011;27813;43.516;11.890;2023-06-10T08:38:45;5.88;;;2.25;;
42144;SDS011;27813;43.516;11.890;2023-06-10T08:42:52;6.32;;;2.95;;
42144;SDS011;27813;43.516;11.890;2023-06-10T08:47:13;5.03;;;2.17;;
42144;SDS011;27813;43.516;11.890;2023-06-10T08:51:20;4.93;;;2.63;;
42144;SDS011;27813;43.516;11.890;2023-06-10T08:55:29;3.70;;;2.10;;
42144;SDS011;27813;43.516;11.890;2023-06-10T08:59:36;5.63;;;1.80;;
42144;SDS011;27813;43.516;11.890;2023-06-10T09:03:42;3.58;;;2.05;;
42144;SDS011;27813;43.516;11.890;2023-06-10T09:07:47;3.60;;;2.17;;
42144;SDS011;27813;43.516;11.890;2023-06-10T09:11:52;6.30;;;2.60;;
42144;SDS011;27813;43.516;11.890;2023-06-10T09:15:56;4.95;;;2.22;;
42144;SDS011;27813;43.516;11.890;2023-06-10T09:20:06;3.50;;;1.92;;
42144;SDS011;27813;43.516;11.890;2023-06-10T09:24:14;6.43;;;2.22;;
42144;SDS011;27813;43.516;11.890;2023-06-10T09:28:18;5.10;;;1.90;;
42144;SDS011;27813;43.516;11.890;2023-06-10T09:32:23;3.47;;;2.30;;
42144;SDS011;27813;43.516;11.890;2023-06-10T09:36:27;4.20;;;2.47;;
42144;SDS011;27813;43.516;11.890;2023-06-10T09:40:32;4.60;;;2.00;;
42144;SDS011;27813;43.516;11.890;2023-06-10T09:44:53;6.18;;;2.70;;
42144;SDS011;27813;43.516;11.890;2023-06-10T09:48:57;3.67;;;1.80;;
42144;SDS011;27813;43.516;11.890;2023-06-10T09:53:01;4.65;;;1.77;;
42144;SDS011;27813;43.516;11.890;2023-06-10T09:57:07;2.55;;;1.67;;
42144;SDS011;27813;43.516;11.890;2023-06-10T10:01:14;2.92;;;1.45;;
42144;SDS011;27813;43.516;11.890;2023-06-10T10:05:21;3.83;;;1.48;;
42144;SDS011;27813;43.516;11.890;2023-06-10T10:09:28;6.00;;;2.38;;
42144;SDS011;27813;43.516;11.890;2023-06-10T10:13:33;4.00;;;1.75;;
42144;SDS011;27813;43.516;11.890;2023-06-10T10:17:47;5.05;;;1.85;;
42144;SDS011;27813;43.516;11.890;2023-06-10T10:22:01;6.80;;;2.03;;
42144;SDS011;27813;43.516;11.890;2023-06-10T10:26:09;7.03;;;2.92;;
42144;SDS011;27813;43.516;11.890;2023-06-10T10:30:15;4.80;;;2.38;;
42144;SDS011;27813;43.516;11.890;2023-06-10T10:34:27;4.43;;;1.75;;
42144;SDS011;27813;43.516;11.890;2023-06-10T10:42:40;4.70;;;2.42;;
42144;SDS011;27813;43.516;11.890;2023-06-10T10:46:49;5.97;;;2.78;;
42144;SDS011;27813;43.516;11.890;2023-06-10T10:50:57;4.88;;;2.05;;
42144;SDS011;27813;43.516;11.890;2023-06-10T10:55:01;6.47;;;2.20;;
42144;SDS011;27813;43.516;11.890;2023-06-10T10:59:16;6.63;;;2.08;;
42144;SDS011;27813;43.516;11.890;2023-06-10T11:03:27;5.07;;;2.10;;
42144;SDS011;27813;43.516;11.890;2023-06-10T11:07:34;3.78;;;1.92;;
42144;SDS011;27813;43.516;11.890;2023-06-10T11:11:48;4.72;;;2.03;;
42144;SDS011;27813;43.516;11.890;2023-06-10T11:15:56;3.67;;;2.28;;
42144;SDS011;27813;43.516;11.890;2023-06-10T11:20:02;9.38;;;3.13;;
42144;SDS011;27813;43.516;11.890;2023-06-10T11:24:12;6.88;;;3.10;;
42144;SDS011;27813;43.516;11.890;2023-06-10T11:28:21;4.15;;;2.20;;
42144;SDS011;27813;43.516;11.890;2023-06-10T11:32:34;4.13;;;1.88;;
42144;SDS011;27813;43.516;11.890;2023-06-10T11:36:40;4.97;;;2.70;;
42144;SDS011;27813;43.516;11.890;2023-06-10T11:40:48;4.43;;;1.88;;
42144;SDS011;27813;43.516;11.890;2023-06-10T11:44:53;2.72;;;1.70;;
42144;SDS011;27813;43.516;11.890;2023-06-10T11:48:59;2.97;;;1.70;;
42144;SDS011;27813;43.516;11.890;2023-06-10T11:53:07;6.20;;;2.17;;
42144;SDS011;27813;43.516;11.890;2023-06-10T11:57:12;4.20;;;1.70;;
42144;SDS011;27813;43.516;11.890;2023-06-10T12:01:19;2.65;;;1.70;;
42144;SDS011;27813;43.516;11.890;2023-06-10T12:05:31;4.45;;;1.73;;
42144;SDS011;27813;43.516;11.890;2023-06-10T12:09:35;5.05;;;1.98;;
42144;SDS011;27813;43.516;11.890;2023-06-10T12:13:45;4.25;;;1.90;;
42144;SDS011;27813;43.516;11.890;2023-06-10T12:17:52;4.70;;;2.00;;
42144;SDS011;27813;43.516;11.890;2023-06-10T12:21:56;3.13;;;1.60;;
42144;SDS011;27813;43.516;11.890;2023-06-10T12:26:04;3.80;;;1.70;;
42144;SDS011;27813;43.516;11.890;2023-06-10T12:30:08;3.17;;;1.75;;
42144;SDS011;27813;43.516;11.890;2023-06-10T12:34:13;6.80;;;2.65;;
42144;SDS011;27813;43.516;11.890;2023-06-10T12:38:23;6.07;;;2.20;;
42144;SDS011;27813;43.516;11.890;2023-06-10T12:42:32;5.13;;;2.33;;
42144;SDS011;27813;43.516;11.890;2023-06-10T12:46:40;4.10;;;2.38;;
42144;SDS011;27813;43.516;11.890;2023-06-10T12:50:52;3.30;;;1.75;;
42144;SDS011;27813;43.516;11.890;2023-06-10T12:55:01;3.80;;;1.90;;
42144;SDS011;27813;43.516;11.890;2023-06-10T12:59:07;2.80;;;1.35;;
42144;SDS011;27813;43.516;11.890;2023-06-10T13:03:12;3.22;;;1.60;;
42144;SDS011;27813;43.516;11.890;2023-06-10T13:07:16;4.07;;;1.65;;
42144;SDS011;27813;43.516;11.890;2023-06-10T13:11:21;4.43;;;1.30;;
42144;SDS011;27813;43.516;11.890;2023-06-10T13:15:27;3.58;;;1.60;;
42144;SDS011;27813;43.516;11.890;2023-06-10T13:25:19;3.53;;;1.85;;
42144;SDS011;27813;43.516;11.890;2023-06-10T13:29:23;2.63;;;1.60;;
42144;SDS011;27813;43.516;11.890;2023-06-10T13:33:28;3.78;;;1.85;;
42144;SDS011;27813;43.516;11.890;2023-06-10T13:37:32;4.65;;;1.67;;
42144;SDS011;27813;43.516;11.890;2023-06-10T13:41:37;4.00;;;2.17;;
42144;SDS011;27813;43.516;11.890;2023-06-10T13:45:41;4.82;;;1.88;;
42144;SDS011;27813;43.516;11.890;2023-06-10T13:49:45;4.95;;;2.55;;
42144;SDS011;27813;43.516;11.890;2023-06-10T13:53:50;5.60;;;2.30;;
42144;SDS011;27813;43.516;11.890;2023-06-10T13:57:55;10.32;;;3.00;;
42144;SDS011;27813;43.516;11.890;2023-06-10T14:01:59;4.95;;;2.70;;
42144;SDS011;27813;43.516;11.890;2023-06-10T14:06:03;5.13;;;3.22;;
42144;SDS011;27813;43.516;11.890;2023-06-10T14:10:07;5.22;;;3.42;;
42144;SDS011;27813;43.516;11.890;2023-06-10T14:14:12;6.78;;;4.13;;
42144;SDS011;27813;43.516;11.890;2023-06-10T14:18:17;8.93;;;3.60;;
42144;SDS011;27813;43.516;11.890;2023-06-10T14:22:21;6.18;;;3.15;;
42144;SDS011;27813;43.516;11.890;2023-06-10T14:26:25;5.57;;;3.60;;
42144;SDS011;27813;43.516;11.890;2023-06-10T14:30:30;6.32;;;4.57;;
42144;SDS011;27813;43.516;11.890;2023-06-10T14:34:34;8.88;;;4.38;;
42144;SDS011;27813;43.516;11.890;2023-06-10T14:38:38;7.25;;;3.72;;
42144;SDS011;27813;43.516;11.890;2023-06-10T14:42:42;4.60;;;3.47;;
42144;SDS011;27813;43.516;11.890;2023-06-10T14:46:46;7.45;;;3.53;;
42144;SDS011;27813;43.516;11.890;2023-06-10T14:50:50;5.75;;;3.55;;
42144;SDS011;27813;43.516;11.890;2023-06-10T14:54:55;6.72;;;3.28;;
42144;SDS011;27813;43.516;11.890;2023-06-10T14:58:59;4.45;;;2.95;;
42144;SDS011;27813;43.516;11.890;2023-06-10T15:03:03;4.18;;;2.58;;
42144;SDS011;27813;43.516;11.890;2023-06-10T15:07:09;6.63;;;3.33;;
42144;SDS011;27813;43.516;11.890;2023-06-10T15:11:15;6.05;;;3.42;;
42144;SDS011;27813;43.516;11.890;2023-06-10T15:15:19;4.88;;;2.03;;
42144;SDS011;27813;43.516;11.890;2023-06-10T15:19:24;5.20;;;1.75;;
42144;SDS011;27813;43.516;11.890;2023-06-10T15:23:29;3.00;;;1.83;;
42144;SDS011;27813;43.516;11.890;2023-06-10T15:27:34;4.65;;;2.00;;
42144;SDS011;27813;43.516;11.890;2023-06-10T15:31:40;4.15;;;1.70;;
42144;SDS011;27813;43.516;11.890;2023-06-10T15:35:45;5.30;;;2.22;;
42144;SDS011;27813;43.516;11.890;2023-06-10T15:39:49;6.50;;;2.38;;
42144;SDS011;27813;43.516;11.890;2023-06-10T15:43:54;2.88;;;1.50;;
42144;SDS011;27813;43.516;11.890;2023-06-10T15:47:58;3.58;;;2.03;;
42144;SDS011;27813;43.516;11.890;2023-06-10T15:52:03;3.83;;;1.60;;
42144;SDS011;27813;43.516;11.890;2023-06-10T15:56:08;2.47;;;1.65;;
42144;SDS011;27813;43.516;11.890;2023-06-10T16:00:13;3.55;;;1.88;;
42144;SDS011;27813;43.516;11.890;2023-06-10T16:04:18;4.32;;;2.40;;
42144;SDS011;27813;43.516;11.890;2023-06-10T16:08:23;4.15;;;2.28;;
42144;SDS011;27813;43.516;11.890;2023-06-10T16:12:28;3.38;;;1.90;;
42144;SDS011;27813;43.516;11.890;2023-06-10T16:16:34;5.10;;;1.65;;
42144;SDS011;27813;43.516;11.890;2023-06-10T16:20:42;3.20;;;1.65;;
42144;SDS011;27813;43.516;11.890;2023-06-10T16:24:56;4.88;;;2.05;;
42144;SDS011;27813;43.516;11.890;2023-06-10T16:29:01;5.72;;;1.83;;
42144;SDS011;27813;43.516;11.890;2023-06-10T16:33:06;2.88;;;1.70;;
42144;SDS011;27813;43.516;11.890;2023-06-10T16:37:12;4.30;;;2.45;;
42144;SDS011;27813;43.516;11.890;2023-06-10T16:41:17;4.35;;;2.20;;
42144;SDS011;27813;43.516;11.890;2023-06-10T16:45:23;4.20;;;2.92;;
42144;SDS011;27813;43.516;11.890;2023-06-10T16:49:28;8.70;;;5.85;;
42144;SDS011;27813;43.516;11.890;2023-06-10T16:53:33;3.90;;;2.05;;
42144;SDS011;27813;43.516;11.890;2023-06-10T16:57:39;3.30;;;2.05;;
42144;SDS011;27813;43.516;11.890;2023-06-10T17:01:43;3.03;;;1.63;;
42144;SDS011;27813;43.516;11.890;2023-06-10T17:05:48;2.95;;;1.70;;
42144;SDS011;27813;43.516;11.890;2023-06-10T17:09:53;2.85;;;2.08;;
42144;SDS011;27813;43.516;11.890;2023-06-10T17:13:59;3.70;;;2.00;;
42144;SDS011;27813;43.516;11.890;2023-06-10T17:18:04;6.43;;;3.30;;
42144;SDS011;27813;43.516;11.890;2023-06-10T17:22:09;5.72;;;3.45;;
42144;SDS011;27813;43.516;11.890;2023-06-10T17:26:14;5.38;;;3.88;;
42144;SDS011;27813;43.516;11.890;2023-06-10T17:30:19;6.43;;;3.28;;
42144;SDS011;27813;43.516;11.890;2023-06-10T17:34:24;5.40;;;2.35;;
42144;SDS011;27813;43.516;11.890;2023-06-10T17:38:29;5.13;;;2.28;;
42144;SDS011;27813;43.516;11.890;2023-06-10T17:42:34;8.20;;;2.35;;
42144;SDS011;27813;43.516;11.890;2023-06-10T17:46:42;4.65;;;2.38;;
42144;SDS011;27813;43.516;11.890;2023-06-10T17:50:47;3.78;;;1.73;;
42144;SDS011;27813;43.516;11.890;2023-06-10T17:54:54;3.00;;;1.70;;
42144;SDS011;27813;43.516;11.890;2023-06-10T17:59:01;3.33;;;1.88;;
42144;SDS011;27813;43.516;11.890;2023-06-10T18:03:06;3.65;;;1.52;;
42144;SDS011;27813;43.516;11.890;2023-06-10T18:07:12;2.70;;;1.95;;
42144;SDS011;27813;43.516;11.890;2023-06-10T18:11:16;4.03;;;1.70;;
42144;SDS011;27813;43.516;11.890;2023-06-10T18:15:20;3.58;;;2.10;;
42144;SDS011;27813;43.516;11.890;2023-06-10T18:19:26;12.02;;;6.28;;
42144;SDS011;27813;43.516;11.890;2023-06-10T18:23:45;3.78;;;2.58;;
42144;SDS011;27813;43.516;11.890;2023-06-10T18:27:58;4.35;;;2.78;;
42144;SDS011;27813;43.516;11.890;2023-06-10T18:32:14;3.67;;;2.45;;
42144;SDS011;27813;43.516;11.890;2023-06-10T18:36:44;10.95;;;7.45;;
42144;SDS011;27813;43.516;11.890;2023-06-10T18:40:48;4.18;;;2.90;;
42144;SDS011;27813;43.516;11.890;2023-06-10T18:44:54;5.03;;;3.40;;
42144;SDS011;27813;43.516;11.890;2023-06-10T18:48:58;7.43;;;3.88;;
42144;SDS011;27813;43.516;11.890;2023-06-10T18:53:03;7.82;;;4.30;;
42144;SDS011;27813;43.516;11.890;2023-06-10T18:57:08;30.20;;;24.10;;
42144;SDS011;27813;43.516;11.890;2023-06-10T19:01:14;18.52;;;12.10;;
42144;SDS011;27813;43.516;11.890;2023-06-10T19:05:18;8.20;;;4.70;;
42144;SDS011;27813;43.516;11.890;2023-06-10T19:09:22;5.82;;;3.70;;
42144;SDS011;27813;43.516;11.890;2023-06-10T19:13:26;6.10;;;3.40;;
42144;SDS011;27813;43.516;11.890;2023-06-10T19:17:30;3.90;;;2.78;;
42144;SDS011;27813;43.516;11.890;2023-06-10T19:21:35;6.32;;;3.90;;
42144;SDS011;27813;43.516;11.890;2023-06-10T19:25:39;6.75;;;2.63;;
42144;SDS011;27813;43.516;11.890;2023-06-10T19:29:44;6.78;;;2.72;;
42144;SDS011;27813;43.516;11.890;2023-06-10T19:33:48;6.40;;;3.35;;
42144;SDS011;27813;43.516;11.890;2023-06-10T19:37:52;4.80;;;3.00;;
42144;SDS011;27813;43.516;11.890;2023-06-10T19:41:56;4.15;;;2.97;;
42144;SDS011;27813;43.516;11.890;2023-06-10T19:46:01;5.20;;;3.50;;
42144;SDS011;27813;43.516;11.890;2023-06-10T19:50:05;4.90;;;2.92;;
42144;SDS011;27813;43.516;11.890;2023-06-10T19:54:10;3.83;;;2.40;;
42144;SDS011;27813;43.516;11.890;2023-06-10T19:58:14;7.82;;;3.35;;
42144;SDS011;27813;43.516;11.890;2023-06-10T20:02:19;7.80;;;3.45;;
42144;SDS011;27813;43.516;11.890;2023-06-10T20:06:23;3.50;;;2.13;;
42144;SDS011;27813;43.516;11.890;2023-06-10T20:10:27;4.45;;;2.13;;
42144;SDS011;27813;43.516;11.890;2023-06-10T20:14:34;6.68;;;2.40;;
42144;SDS011;27813;43.516;11.890;2023-06-10T20:18:38;5.85;;;2.60;;
42144;SDS011;27813;43.516;11.890;2023-06-10T20:22:43;4.30;;;2.15;;
42144;SDS011;27813;43.516;11.890;2023-06-10T20:26:47;7.65;;;2.70;;
42144;SDS011;27813;43.516;11.890;2023-06-10T20:30:51;4.20;;;2.17;;
42144;SDS011;27813;43.516;11.890;2023-06-10T20:34:56;4.75;;;2.45;;
42144;SDS011;27813;43.516;11.890;2023-06-10T20:39:00;4.43;;;2.45;;
42144;SDS011;27813;43.516;11.890;2023-06-10T20:43:04;4.53;;;2.63;;
42144;SDS011;27813;43.516;11.890;2023-06-10T20:47:09;4.63;;;2.30;;
42144;SDS011;27813;43.516;11.890;2023-06-10T20:51:13;4.65;;;2.08;;
42144;SDS011;27813;43.516;11.890;2023-06-10T20:55:18;5.25;;;2.67;;
42144;SDS011;27813;43.516;11.890;2023-06-10T20:59:22;5.75;;;2.40;;
42144;SDS011;27813;43.516;11.890;2023-06-10T21:03:26;4.15;;;2.45;;
42144;SDS011;27813;43.516;11.890;2023-06-10T21:07:31;4.72;;;2.53;;
42144;SDS011;27813;43.516;11.890;2023-06-10T21:11:35;3.55;;;2.40;;
42144;SDS011;27813;43.516;11.890;2023-06-10T21:15:39;3.08;;;2.33;;
42144;SDS011;27813;43.516;11.890;2023-06-10T21:19:44;3.65;;;2.30;;
42144;SDS011;27813;43.516;11.890;2023-06-10T21:23:49;4.90;;;2.55;;
42144;SDS011;27813;43.516;11.890;2023-06-10T21:27:56;6.55;;;2.42;;
42144;SDS011;27813;43.516;11.890;2023-06-10T21:32:00;4.03;;;2.80;;
42144;SDS011;27813;43.516;11.890;2023-06-10T21:36:04;3.03;;;2.25;;
42144;SDS011;27813;43.516;11.890;2023-06-10T21:40:09;3.60;;;2.47;;
42144;SDS011;27813;43.516;11.890;2023-06-10T21:44:15;3.70;;;2.60;;
42144;SDS011;27813;43.516;11.890;2023-06-10T21:48:19;4.82;;;2.22;;
42144;SDS011;27813;43.516;11.890;2023-06-10T21:52:25;4.47;;;2.50;;
42144;SDS011;27813;43.516;11.890;2023-06-10T21:56:29;4.82;;;2.20;;
42144;SDS011;27813;43.516;11.890;2023-06-10T22:00:37;3.85;;;2.40;;
42144;SDS011;27813;43.516;11.890;2023-06-10T22:04:43;5.55;;;2.53;;
42144;SDS011;27813;43.516;11.890;2023-06-10T22:08:48;3.85;;;2.30;;
42144;SDS011;27813;43.516;11.890;2023-06-10T22:12:52;4.38;;;2.60;;
42144;SDS011;27813;43.516;11.890;2023-06-10T22:16:57;2.95;;;2.08;;
42144;SDS011;27813;43.516;11.890;2023-06-10T22:21:01;3.15;;;2.20;;
42144;SDS011;27813;43.516;11.890;2023-06-10T22:25:08;4.10;;;2.38;;
42144;SDS011;27813;43.516;11.890;2023-06-10T22:29:12;5.80;;;2.55;;
42144;SDS011;27813;43.516;11.890;2023-06-10T22:33:21;3.97;;;2.42;;
42144;SDS011;27813;43.516;11.890;2023-06-10T22:37:25;5.10;;;2.72;;
42144;SDS011;27813;43.516;11.890;2023-06-10T22:41:29;3.60;;;2.30;;
42144;SDS011;27813;43.516;11.890;2023-06-10T22:45:34;6.10;;;2.85;;
42144;SDS011;27813;43.516;11.890;2023-06-10T22:49:38;3.25;;;2.30;;
42144;SDS011;27813;43.516;11.890;2023-06-10T22:53:44;3.55;;;2.25;;
42144;SDS011;27813;43.516;11.890;2023-06-10T22:57:48;4.70;;;2.45;;
42144;SDS011;27813;43.516;11.890;2023-06-10T23:01:52;7.15;;;2.72;;
42144;SDS011;27813;43.516;11.890;2023-06-10T23:05:57;5.25;;;2.90;;
42144;SDS011;27813;43.516;11.890;2023-06-10T23:10:02;3.58;;;2.80;;
42144;SDS011;27813;43.516;11.890;2023-06-10T23:14:07;5.53;;;2.42;;
42144;SDS011;27813;43.516;11.890;2023-06-10T23:18:14;3.65;;;2.30;;
42144;SDS011;27813;43.516;11.890;2023-06-10T23:22:20;3.63;;;2.20;;
42144;SDS011;27813;43.516;11.890;2023-06-10T23:26:26;4.20;;;2.20;;
